createdAt,value
2018-03-21T00:00:45.724Z,101432.28
2018-03-21T00:03:13.177Z,101431.31
2018-03-21T00:05:40.645Z,101428.70
2018-03-21T00:08:08.097Z,101435.12
2018-03-21T00:10:35.583Z,101428.50
2018-03-21T00:13:03.073Z,101437.70
2018-03-21T00:15:30.521Z,101439.25
2018-03-21T00:17:57.988Z,101446.50
2018-03-21T00:20:25.434Z,101453.64
2018-03-21T00:22:53.129Z,101453.28
2018-03-21T00:25:20.577Z,101451.52
2018-03-21T00:27:48.024Z,101461.42
2018-03-21T00:30:15.498Z,101458.16
2018-03-21T00:32:42.941Z,101460.16
2018-03-21T00:35:10.601Z,101456.83
2018-03-21T00:37:38.083Z,101455.84
2018-03-21T00:40:05.537Z,101464.27
2018-03-21T00:42:33.045Z,101460.06
2018-03-21T00:45:00.493Z,101467.78
2018-03-21T00:47:27.965Z,101468.30
2018-03-21T00:49:55.418Z,101468.65
2018-03-21T00:52:22.873Z,101467.99
2018-03-21T00:54:50.345Z,101470.39
2018-03-21T00:57:17.810Z,101470.35
2018-03-21T00:59:45.308Z,101467.74
2018-03-21T01:02:12.794Z,101473.10
2018-03-21T01:04:40.266Z,101470.63
2018-03-21T01:07:07.744Z,101475.92
2018-03-21T01:09:35.203Z,101484.14
2018-03-21T01:12:02.859Z,101479.30
2018-03-21T01:14:30.316Z,101483.64
2018-03-21T01:16:57.810Z,101480.12
2018-03-21T01:19:25.282Z,101479.35
2018-03-21T01:21:52.740Z,101487.98
2018-03-21T01:24:20.586Z,101490.11
2018-03-21T01:26:48.042Z,101488.39
2018-03-21T01:29:15.496Z,101494.64
2018-03-21T01:31:42.974Z,101498.69
2018-03-21T01:34:10.435Z,101502.00
2018-03-21T01:36:38.169Z,101497.17
2018-03-21T01:39:05.628Z,101499.22
2018-03-21T01:41:33.081Z,101496.83
2018-03-21T01:44:00.545Z,101492.45
2018-03-21T01:46:27.986Z,101495.61
2018-03-21T01:48:55.496Z,101492.73
2018-03-21T01:51:22.971Z,101498.98
2018-03-21T01:53:50.422Z,101497.71
2018-03-21T01:56:17.881Z,101497.75
2018-03-21T01:58:45.333Z,101497.47
2018-03-21T02:01:12.821Z,101494.39
2018-03-21T02:03:40.294Z,101501.41
2018-03-21T02:06:07.745Z,101503.05
2018-03-21T02:08:35.236Z,101505.14
2018-03-21T02:11:02.695Z,101499.36
2018-03-21T02:13:30.287Z,101504.25
2018-03-21T02:15:57.738Z,101498.72
2018-03-21T02:18:25.185Z,101501.75
2018-03-21T02:20:52.663Z,101502.41
2018-03-21T02:23:20.120Z,101505.20
2018-03-21T02:25:47.842Z,101508.45
2018-03-21T02:28:15.290Z,101505.10
2018-03-21T02:30:42.760Z,101505.06
2018-03-21T02:33:10.231Z,101510.62
2018-03-21T02:35:37.698Z,101505.62
2018-03-21T02:38:05.177Z,101505.58
2018-03-21T02:40:32.635Z,101510.39
2018-03-21T02:43:00.105Z,101508.49
2018-03-21T02:45:27.613Z,101511.45
2018-03-21T02:47:55.082Z,101510.76
2018-03-21T02:50:22.558Z,101513.05
2018-03-21T02:52:50.033Z,101506.83
2018-03-21T02:55:17.481Z,101505.05
2018-03-21T02:57:44.959Z,101510.16
2018-03-21T03:00:12.428Z,101510.98
2018-03-21T03:02:39.905Z,101509.52
2018-03-21T03:05:07.380Z,101515.31
2018-03-21T03:07:34.830Z,101515.35
2018-03-21T03:10:02.297Z,101507.63
2018-03-21T03:12:29.766Z,101514.98
2018-03-21T03:14:57.242Z,101507.13
2018-03-21T03:17:24.695Z,101515.42
2018-03-21T03:19:52.148Z,101512.86
2018-03-21T03:22:19.626Z,101520.77
2018-03-21T03:24:47.069Z,101520.21
2018-03-21T03:27:14.834Z,101517.80
2018-03-21T03:29:42.285Z,101520.17
2018-03-21T03:32:09.729Z,101525.50
2018-03-21T03:34:37.224Z,101519.62
2018-03-21T03:37:04.712Z,101520.25
2018-03-21T03:39:32.190Z,101521.81
2018-03-21T03:41:59.637Z,101525.36
2018-03-21T03:44:27.098Z,101519.28
2018-03-21T03:46:54.561Z,101524.19
2018-03-21T03:49:22.010Z,101521.73
2018-03-21T03:51:49.686Z,101521.52
2018-03-21T03:54:17.133Z,101523.81
2018-03-21T03:56:44.621Z,101521.44
2018-03-21T03:59:12.089Z,101521.81
2018-03-21T04:01:39.566Z,101519.52
2018-03-21T04:04:07.245Z,101521.03
2018-03-21T04:06:34.705Z,101526.59
2018-03-21T04:09:02.151Z,101530.52
2018-03-21T04:11:29.617Z,101530.41
2018-03-21T04:13:57.065Z,101537.94
2018-03-21T04:16:24.542Z,101535.17
2018-03-21T04:18:51.985Z,101542.50
2018-03-21T04:21:19.437Z,101541.86
2018-03-21T04:23:46.921Z,101543.69
2018-03-21T04:26:14.385Z,101543.78
2018-03-21T04:28:41.875Z,101544.75
2018-03-21T04:31:09.353Z,101547.62
2018-03-21T04:33:36.803Z,101548.29
2018-03-21T04:36:04.297Z,101549.18
2018-03-21T04:38:31.759Z,101549.91
2018-03-21T04:40:59.377Z,101549.13
2018-03-21T04:43:26.817Z,101553.17
2018-03-21T04:45:54.252Z,101554.45
2018-03-21T04:48:21.724Z,101552.20
2018-03-21T04:50:49.173Z,101557.88
2018-03-21T04:53:16.937Z,101557.26
2018-03-21T04:55:44.378Z,101561.44
2018-03-21T04:58:11.822Z,101562.84
2018-03-21T05:00:39.300Z,101560.97
2018-03-21T05:03:06.747Z,101562.05
2018-03-21T05:05:34.696Z,101560.13
2018-03-21T05:08:02.140Z,101560.48
2018-03-21T05:10:29.589Z,101562.22
2018-03-21T05:12:57.083Z,101568.98
2018-03-21T05:15:24.530Z,101561.63
2018-03-21T05:17:52.007Z,101562.75
2018-03-21T05:20:19.451Z,101566.14
2018-03-21T05:22:46.913Z,101570.12
2018-03-21T05:25:14.438Z,101568.92
2018-03-21T05:27:41.885Z,101573.91
2018-03-21T05:30:09.361Z,101578.92
2018-03-21T05:32:36.816Z,101579.31
2018-03-21T05:35:04.275Z,101578.27
2018-03-21T05:37:32.141Z,101570.57
2018-03-21T05:39:59.591Z,101568.36
2018-03-21T05:42:27.457Z,101578.37
2018-03-21T05:44:54.925Z,101582.26
2018-03-21T05:47:22.376Z,101583.69
2018-03-21T05:49:49.860Z,101583.20
2018-03-21T05:52:17.612Z,101586.94
2018-03-21T05:54:45.210Z,101583.78
2018-03-21T05:57:12.666Z,101590.81
2018-03-21T05:59:40.117Z,101589.70
2018-03-21T06:02:07.602Z,101593.15
2018-03-21T06:04:35.050Z,101599.85
2018-03-21T06:07:02.497Z,101597.55
2018-03-21T06:09:30.130Z,101604.78
2018-03-21T06:11:57.578Z,101615.17
2018-03-21T06:14:25.025Z,101612.17
2018-03-21T06:16:52.497Z,101606.65
2018-03-21T06:19:19.937Z,101614.03
2018-03-21T06:21:47.679Z,101621.51
2018-03-21T06:24:15.152Z,101622.28
2018-03-21T06:26:42.602Z,101629.33
2018-03-21T06:29:10.087Z,101624.42
2018-03-21T06:31:37.537Z,101626.95
2018-03-21T06:34:05.343Z,101629.42
2018-03-21T06:36:32.802Z,101635.86
2018-03-21T06:39:00.249Z,101632.80
2018-03-21T06:41:27.720Z,101636.13
2018-03-21T06:43:55.193Z,101640.59
2018-03-21T06:46:22.790Z,101642.12
2018-03-21T06:48:50.237Z,101642.98
2018-03-21T06:51:17.697Z,101648.87
2018-03-21T06:53:45.161Z,101646.75
2018-03-21T06:56:12.635Z,101644.52
2018-03-21T06:58:40.109Z,101650.52
2018-03-21T07:01:07.585Z,101647.33
2018-03-21T07:03:35.072Z,101648.41
2018-03-21T07:06:02.552Z,101654.88
2018-03-21T07:08:30.006Z,101661.79
2018-03-21T07:10:57.719Z,101658.33
2018-03-21T07:13:25.169Z,101667.31
2018-03-21T07:16:04.742Z,101667.20
2018-03-21T07:18:32.216Z,101667.09
2018-03-21T07:20:59.677Z,101671.55
2018-03-21T07:23:27.174Z,101672.73
2018-03-21T07:25:54.635Z,101670.98
2018-03-21T07:28:22.478Z,101674.63
2018-03-21T07:30:49.934Z,101674.77
2018-03-21T07:33:17.380Z,101679.10
2018-03-21T07:35:44.860Z,101669.70
2018-03-21T07:38:12.309Z,101671.98
2018-03-21T07:40:39.778Z,101676.33
2018-03-21T07:43:07.233Z,101684.56
2018-03-21T07:45:34.677Z,101685.26
2018-03-21T07:48:02.184Z,101691.48
2018-03-21T07:50:29.613Z,101692.35
2018-03-21T07:52:57.377Z,101697.42
2018-03-21T07:55:24.856Z,101698.41
2018-03-21T07:57:52.302Z,101699.75
2018-03-21T08:00:19.771Z,101705.07
2018-03-21T08:02:47.261Z,101701.53
2018-03-21T08:05:14.891Z,101705.05
2018-03-21T08:07:42.362Z,101707.72
2018-03-21T08:10:10.855Z,101710.65
2018-03-21T08:12:38.370Z,101713.61
2018-03-21T08:15:06.681Z,101715.30
2018-03-21T08:17:34.429Z,101719.38
2018-03-21T08:20:01.894Z,101717.91
2018-03-21T08:22:31.557Z,101725.37
2018-03-21T08:25:01.421Z,101720.59
2018-03-21T08:27:28.858Z,101723.24
2018-03-21T08:29:56.761Z,101728.00
2018-03-21T08:32:24.200Z,101728.87
2018-03-21T08:34:51.637Z,101726.55
2018-03-21T08:37:19.101Z,101723.88
2018-03-21T08:39:46.571Z,101726.39
2018-03-21T08:42:18.599Z,101727.61
2018-03-21T08:44:48.439Z,101732.25
2018-03-21T08:47:18.195Z,101730.15
2018-03-21T08:49:45.822Z,101724.04
2018-03-21T08:52:13.320Z,101731.25
2018-03-21T08:54:44.349Z,101726.73
2018-03-21T08:57:11.855Z,101725.37
2018-03-21T08:59:39.542Z,101724.87
2018-03-21T09:02:06.985Z,101731.22
2018-03-21T09:04:34.432Z,101718.53
2018-03-21T09:07:03.417Z,101714.30
2018-03-21T09:09:30.883Z,101715.70
2018-03-21T09:11:58.574Z,101711.22
2018-03-21T09:14:26.010Z,101709.45
2018-03-21T09:16:53.458Z,101713.89
2018-03-21T09:19:20.958Z,101709.75
2018-03-21T09:21:48.414Z,101710.78
2018-03-21T09:24:16.069Z,101709.05
2018-03-21T09:26:43.559Z,101706.73
2018-03-21T09:29:11.026Z,101710.80
2018-03-21T09:31:38.505Z,101705.44
2018-03-21T09:34:06.090Z,101708.48
2018-03-21T09:36:34.158Z,101708.22
2018-03-21T09:39:01.624Z,101709.37
2018-03-21T09:41:29.077Z,101704.37
2018-03-21T09:43:56.773Z,101706.92
2018-03-21T09:46:24.243Z,101712.03
2018-03-21T09:48:51.717Z,101719.00
2018-03-21T09:51:20.193Z,101707.48
2018-03-21T09:53:47.641Z,101709.39
2018-03-21T09:56:15.105Z,101709.45
2018-03-21T09:58:42.546Z,101710.04
2018-03-21T10:01:10.210Z,101701.17
2018-03-21T10:03:37.654Z,101698.88
2018-03-21T10:06:05.108Z,101699.45
2018-03-21T10:08:32.581Z,101686.39
2018-03-21T10:11:00.019Z,101689.92
2018-03-21T10:13:29.957Z,101692.09
2018-03-21T10:15:57.629Z,101692.72
2018-03-21T10:18:25.077Z,101699.31
2018-03-21T10:20:52.533Z,101695.10
2018-03-21T10:23:20.039Z,101693.61
2018-03-21T10:25:47.521Z,101693.05
2018-03-21T10:28:14.972Z,101688.11
2018-03-21T10:30:42.421Z,101686.48
2018-03-21T10:33:10.035Z,101689.73
2018-03-21T10:35:37.579Z,101686.55
2018-03-21T10:38:05.405Z,101685.41
2018-03-21T10:40:33.569Z,101690.58
2018-03-21T10:43:01.015Z,101685.63
2018-03-21T10:45:28.473Z,101679.12
2018-03-21T10:47:55.911Z,101681.31
2018-03-21T10:50:23.612Z,101683.91
2018-03-21T10:52:51.058Z,101681.36
2018-03-21T10:55:18.551Z,101680.13
2018-03-21T10:57:46.033Z,101680.11
2018-03-21T11:00:13.477Z,101675.91
2018-03-21T11:02:46.653Z,101669.75
2018-03-21T11:05:14.118Z,101674.09
2018-03-21T11:07:41.583Z,101665.30
2018-03-21T11:10:09.043Z,101671.51
2018-03-21T11:12:36.490Z,101665.34
2018-03-21T11:15:03.962Z,101668.09
2018-03-21T11:17:31.405Z,101673.45
2018-03-21T11:19:58.845Z,101664.91
2018-03-21T11:22:26.346Z,101665.62
2018-03-21T11:24:53.798Z,101670.60
2018-03-21T11:27:21.267Z,101668.55
2018-03-21T11:29:48.726Z,101659.50
2018-03-21T11:32:16.194Z,101659.63
2018-03-21T11:34:43.658Z,101660.48
2018-03-21T11:37:11.120Z,101656.06
2018-03-21T11:39:38.605Z,101656.48
2018-03-21T11:42:06.125Z,101655.60
2018-03-21T11:44:33.537Z,101657.15
2018-03-21T11:47:01.010Z,101651.77
2018-03-21T11:49:28.458Z,101651.83
2018-03-21T11:51:55.961Z,101640.94
2018-03-21T11:54:23.401Z,101637.58
2018-03-21T11:56:50.864Z,101641.88
2018-03-21T11:59:18.325Z,101642.79
2018-03-21T12:01:45.785Z,101632.97
2018-03-21T12:04:13.274Z,101639.50
2018-03-21T12:06:40.713Z,101638.27
2018-03-21T12:09:08.153Z,101631.85
2018-03-21T12:11:35.613Z,101626.99
2018-03-21T12:14:03.061Z,101627.70
2018-03-21T12:16:30.635Z,101627.03
2018-03-21T12:18:58.107Z,101627.70
2018-03-21T12:21:25.541Z,101621.73
2018-03-21T12:23:53.007Z,101632.95
2018-03-21T12:26:20.447Z,101633.30
2018-03-21T12:28:48.094Z,101626.50
2018-03-21T12:31:15.542Z,101619.23
2018-03-21T12:33:43.373Z,101613.59
2018-03-21T12:36:10.845Z,101615.21
2018-03-21T12:38:38.287Z,101608.05
2018-03-21T12:41:06.087Z,101601.39
2018-03-21T12:43:33.529Z,101602.80
2018-03-21T12:46:00.991Z,101605.23
2018-03-21T12:48:28.491Z,101593.06
2018-03-21T12:50:55.937Z,101599.58
2018-03-21T12:53:23.713Z,101612.20
2018-03-21T12:55:51.290Z,101602.50
2018-03-21T12:58:18.646Z,101602.24
2018-03-21T13:00:46.117Z,101594.86
2018-03-21T13:03:13.565Z,101597.83
2018-03-21T13:05:41.362Z,101595.51
2018-03-21T13:08:08.801Z,101583.75
2018-03-21T13:10:36.242Z,101583.09
2018-03-21T13:13:03.735Z,101588.69
2018-03-21T13:15:31.234Z,101587.34
2018-03-21T13:17:59.029Z,101580.81
2018-03-21T13:20:26.510Z,101577.67
2018-03-21T13:22:53.967Z,101587.28
2018-03-21T13:25:21.429Z,101586.05
2018-03-21T13:27:48.882Z,101583.71
2018-03-21T13:30:16.469Z,101582.86
2018-03-21T13:32:43.915Z,101580.77
2018-03-21T13:35:11.377Z,101576.08
2018-03-21T13:37:38.853Z,101575.53
2018-03-21T13:40:06.314Z,101568.33
2018-03-21T13:42:33.805Z,101569.73
2018-03-21T13:45:01.250Z,101561.80
2018-03-21T13:47:28.710Z,101563.77
2018-03-21T13:49:56.173Z,101563.26
2018-03-21T13:52:23.666Z,101556.58
2018-03-21T13:54:51.094Z,101560.09
2018-03-21T13:57:18.553Z,101553.05
2018-03-21T13:59:45.997Z,101550.90
2018-03-21T14:02:13.453Z,101542.09
2018-03-21T14:04:40.898Z,101539.06
2018-03-21T14:07:08.525Z,101531.17
2018-03-21T14:09:36.005Z,101529.94
2018-03-21T14:12:03.454Z,101524.63
2018-03-21T14:14:30.981Z,101522.02
2018-03-21T14:16:58.429Z,101510.52
2018-03-21T14:19:26.081Z,101511.38
2018-03-21T14:21:53.516Z,101504.73
2018-03-21T14:24:20.959Z,101505.39
2018-03-21T14:26:48.453Z,101498.83
2018-03-21T14:29:15.889Z,101492.35
2018-03-21T14:31:43.398Z,101494.17
2018-03-21T14:34:10.841Z,101490.62
2018-03-21T14:36:38.306Z,101491.96
2018-03-21T14:39:12.801Z,101493.35
2018-03-21T14:41:40.253Z,101493.78
2018-03-21T14:44:07.737Z,101490.67
2018-03-21T14:46:38.585Z,101492.86
2018-03-21T14:49:06.048Z,101493.30
2018-03-21T14:51:33.526Z,101490.11
2018-03-21T14:54:00.965Z,101487.98
2018-03-21T14:56:28.574Z,101492.80
2018-03-21T14:58:56.029Z,101495.03
2018-03-21T15:01:23.472Z,101499.41
2018-03-21T15:03:50.937Z,101505.14
2018-03-21T15:06:18.377Z,101500.73
2018-03-21T15:08:46.021Z,101505.55
2018-03-21T15:11:13.472Z,101510.96
2018-03-21T15:13:40.922Z,101502.97
2018-03-21T15:16:08.404Z,101501.22
2018-03-21T15:18:35.849Z,101489.75
2018-03-21T15:21:03.322Z,101491.44
2018-03-21T15:23:30.769Z,101487.94
2018-03-21T15:25:58.237Z,101488.84
2018-03-21T15:28:25.719Z,101485.77
2018-03-21T15:30:53.161Z,101482.23
2018-03-21T15:33:20.627Z,101482.69
2018-03-21T15:35:48.073Z,101484.45
2018-03-21T15:38:15.529Z,101477.41
2018-03-21T15:40:42.993Z,101485.80
2018-03-21T15:43:10.457Z,101482.23
2018-03-21T15:45:38.053Z,101488.87
2018-03-21T15:48:05.512Z,101484.47
2018-03-21T15:50:33.010Z,101474.27
2018-03-21T15:53:00.477Z,101472.98
2018-03-21T15:55:28.034Z,101473.38
2018-03-21T15:57:55.741Z,101472.11
2018-03-21T16:00:23.181Z,101454.44
2018-03-21T16:02:50.639Z,101462.38
2018-03-21T16:05:18.097Z,101462.86
2018-03-21T16:07:45.538Z,101462.82
2018-03-21T16:10:13.193Z,101458.86
2018-03-21T16:12:40.647Z,101462.84
2018-03-21T16:15:08.113Z,101468.11
2018-03-21T16:17:35.577Z,101456.20
2018-03-21T16:20:03.029Z,101461.06
2018-03-21T16:22:30.689Z,101465.03
2018-03-21T16:24:58.149Z,101468.98
2018-03-21T16:27:25.596Z,101473.36
2018-03-21T16:29:53.123Z,101469.86
2018-03-21T16:32:20.573Z,101474.20
2018-03-21T16:34:48.253Z,101477.72
2018-03-21T16:37:15.702Z,101479.48
2018-03-21T16:39:43.141Z,101482.17
2018-03-21T16:42:10.650Z,101474.64
2018-03-21T16:44:38.080Z,101471.55
2018-03-21T16:47:05.672Z,101478.60
2018-03-21T16:49:33.121Z,101476.80
2018-03-21T16:52:00.562Z,101483.84
2018-03-21T16:54:28.069Z,101482.08
2018-03-21T16:56:55.525Z,101482.45
2018-03-21T16:59:23.128Z,101483.73
2018-03-21T17:01:50.611Z,101479.77
2018-03-21T17:04:18.082Z,101478.50
2018-03-21T17:06:45.560Z,101478.43
2018-03-21T17:09:13.010Z,101476.73
2018-03-21T17:11:40.601Z,101469.67
2018-03-21T17:14:08.042Z,101471.77
2018-03-21T17:16:35.481Z,101473.08
2018-03-21T17:19:02.988Z,101467.78
2018-03-21T17:21:30.433Z,101463.38
2018-03-21T17:23:57.960Z,101465.95
2018-03-21T17:26:25.359Z,101461.55
2018-03-21T17:28:52.819Z,101461.92
2018-03-21T17:31:20.334Z,101455.28
2018-03-21T17:33:47.749Z,101466.25
2018-03-21T17:36:15.602Z,101467.98
2018-03-21T17:38:43.051Z,101467.02
2018-03-21T17:41:10.517Z,101462.07
2018-03-21T17:43:37.990Z,101465.14
2018-03-21T17:46:05.449Z,101469.88
2018-03-21T17:48:32.918Z,101474.27
2018-03-21T17:51:00.372Z,101475.11
2018-03-21T17:53:27.812Z,101469.77
2018-03-21T17:55:55.312Z,101466.92
2018-03-21T17:58:22.774Z,101468.94
2018-03-21T18:00:50.246Z,101473.73
2018-03-21T18:03:17.690Z,101483.27
2018-03-21T18:05:45.135Z,101484.89
2018-03-21T18:08:12.652Z,101488.17
2018-03-21T18:10:40.094Z,101489.03
2018-03-21T18:13:07.791Z,101487.36
2018-03-21T18:15:35.231Z,101484.58
2018-03-21T18:18:02.686Z,101488.98
2018-03-21T18:20:30.151Z,101488.51
2018-03-21T18:22:57.601Z,101504.19
2018-03-21T18:25:25.090Z,101496.20
2018-03-21T18:27:52.546Z,101505.50
2018-03-21T18:30:20.002Z,101508.62
2018-03-21T18:32:47.481Z,101506.70
2018-03-21T18:35:14.940Z,101504.66
2018-03-21T18:37:42.417Z,101501.94
2018-03-21T18:40:09.861Z,101509.38
2018-03-21T18:42:37.314Z,101501.56
2018-03-21T18:45:04.773Z,101504.38
2018-03-21T18:47:32.230Z,101512.88
2018-03-21T18:49:59.922Z,101505.67
2018-03-21T18:52:28.178Z,101508.72
2018-03-21T18:54:55.630Z,101500.64
2018-03-21T18:57:23.094Z,101510.47
2018-03-21T18:59:50.542Z,101509.52
2018-03-21T19:02:18.189Z,101510.73
2018-03-21T19:04:45.662Z,101509.91
2018-03-21T19:07:13.134Z,101514.09
2018-03-21T19:09:40.630Z,101526.52
2018-03-21T19:12:08.074Z,101532.73
2018-03-21T19:14:35.690Z,101527.98
2018-03-21T19:17:03.129Z,101533.39
2018-03-21T19:19:30.634Z,101538.95
2018-03-21T19:21:58.140Z,101540.12
2018-03-21T19:24:25.609Z,101545.28
2018-03-21T19:26:53.276Z,101545.08
2018-03-21T19:29:20.743Z,101536.75
2018-03-21T19:31:48.194Z,101534.91
2018-03-21T19:34:15.662Z,101542.50
2018-03-21T19:36:43.121Z,101541.44
2018-03-21T19:39:10.686Z,101536.13
2018-03-21T19:41:40.314Z,101539.24
2018-03-21T19:44:07.791Z,101532.97
2018-03-21T19:46:35.302Z,101532.51
2018-03-21T19:49:03.451Z,101534.16
2018-03-21T19:51:31.158Z,101539.14
2018-03-21T19:53:58.613Z,101535.67
2018-03-21T19:56:27.164Z,101537.89
2018-03-21T19:58:56.010Z,101536.53
2018-03-21T20:01:23.489Z,101536.05
2018-03-21T20:03:51.127Z,101535.30
2018-03-21T20:06:18.589Z,101524.85
2018-03-21T20:08:46.056Z,101527.80
2018-03-21T20:11:13.533Z,101527.64
2018-03-21T20:13:41.014Z,101524.09
2018-03-21T20:16:08.584Z,101526.16
2018-03-21T20:18:36.029Z,101524.83
2018-03-21T20:21:04.295Z,101528.59
2018-03-21T20:23:31.787Z,101522.03
2018-03-21T20:25:59.263Z,101516.72
2018-03-21T20:28:26.985Z,101510.51
2018-03-21T20:30:56.268Z,101513.83
2018-03-21T20:33:23.712Z,101512.17
2018-03-21T20:35:51.229Z,101506.86
2018-03-21T20:38:18.674Z,101502.97
2018-03-21T20:40:46.162Z,101509.45
2018-03-21T20:43:13.618Z,101511.09
2018-03-21T20:45:41.081Z,101501.74
2018-03-21T20:48:08.556Z,101508.80
2018-03-21T20:50:36.001Z,101509.08
2018-03-21T20:53:03.746Z,101507.59
2018-03-21T20:55:31.205Z,101507.51
2018-03-21T20:57:58.653Z,101500.77
2018-03-21T21:00:27.115Z,101503.82
2018-03-21T21:02:54.582Z,101494.77
2018-03-21T21:05:22.200Z,101495.27
2018-03-21T21:07:49.663Z,101486.52
2018-03-21T21:10:17.106Z,101494.14
2018-03-21T21:12:44.583Z,101496.55
2018-03-21T21:15:12.030Z,101496.28
2018-03-21T21:17:39.516Z,101494.57
2018-03-21T21:20:06.986Z,101491.39
2018-03-21T21:22:34.492Z,101493.00
2018-03-21T21:25:01.918Z,101500.44
2018-03-21T21:27:29.377Z,101502.61
2018-03-21T21:29:57.198Z,101497.69
2018-03-21T21:32:24.685Z,101492.23
2018-03-21T21:34:52.158Z,101494.78
2018-03-21T21:37:19.649Z,101492.88
2018-03-21T21:39:47.116Z,101490.99
2018-03-21T21:42:14.886Z,101489.05
2018-03-21T21:44:42.339Z,101487.02
2018-03-21T21:47:09.794Z,101497.35
2018-03-21T21:49:37.291Z,101492.64
2018-03-21T21:52:04.765Z,101486.45
2018-03-21T21:54:32.281Z,101485.61
2018-03-21T21:56:59.730Z,101482.66
2018-03-21T21:59:27.178Z,101484.80
2018-03-21T22:01:54.646Z,101478.08
2018-03-21T22:04:22.102Z,101485.06
2018-03-21T22:06:49.650Z,101487.48
2018-03-21T22:09:17.105Z,101487.59
2018-03-21T22:11:44.589Z,101478.63
2018-03-21T22:14:12.066Z,101474.11
2018-03-21T22:16:39.538Z,101470.17
2018-03-21T22:19:07.204Z,101463.48
2018-03-21T22:21:34.675Z,101462.52
2018-03-21T22:24:02.117Z,101460.87
2018-03-21T22:26:29.593Z,101456.55
2018-03-21T22:28:57.042Z,101458.00
2018-03-21T22:31:24.526Z,101453.05
2018-03-21T22:33:52.001Z,101456.98
2018-03-21T22:36:19.458Z,101452.56
2018-03-21T22:38:46.965Z,101446.02
2018-03-21T22:41:14.573Z,101439.06
2018-03-21T22:43:42.213Z,101442.61
2018-03-21T22:46:09.669Z,101428.69
2018-03-21T22:48:37.131Z,101431.32
2018-03-21T22:51:04.614Z,101426.63
2018-03-21T22:53:32.069Z,101417.36
2018-03-21T22:55:59.889Z,101416.30
2018-03-21T22:58:27.343Z,101417.04
2018-03-21T23:00:54.801Z,101420.22
2018-03-21T23:03:22.286Z,101410.69
2018-03-21T23:05:49.738Z,101394.23
2018-03-21T23:08:17.213Z,101392.44
2018-03-21T23:10:44.693Z,101380.09
2018-03-21T23:13:12.138Z,101384.25
2018-03-21T23:15:39.610Z,101370.16
2018-03-21T23:18:07.071Z,101369.58
2018-03-21T23:20:34.665Z,101369.55
2018-03-21T23:23:02.114Z,101368.17
2018-03-21T23:25:29.568Z,101368.91
2018-03-21T23:27:57.033Z,101364.20
2018-03-21T23:30:24.489Z,101359.77
2018-03-21T23:32:51.982Z,101356.36
2018-03-21T23:35:19.439Z,101346.15
2018-03-21T23:37:46.906Z,101351.03
2018-03-21T23:40:14.395Z,101342.94
2018-03-21T23:42:41.951Z,101336.23
2018-03-21T23:45:09.455Z,101335.78
2018-03-21T23:47:36.922Z,101333.88
2018-03-21T23:50:04.467Z,101333.59
2018-03-21T23:52:31.942Z,101334.81
2018-03-21T23:54:59.400Z,101337.42
2018-03-21T23:57:27.562Z,101347.53
2018-03-21T23:59:55.015Z,101348.90
